Time;durP1;ratioP1;P1;durP2;ratioP2;P2;SDS_P1;SDS_P2;PMS_P1;PMS_P2;Temp;Humidity;BMP_temperature;BMP_pressure;BME280_temperature;BME280_humidity;BME280_pressure;Samples;Min_cycle;Max_cycle;Signal;HPM_P1;HPM_P2
2021/07/04 00:01:13;;;;;;;1.40;1.27;;;21.10;99.90;;;;;;5117922;27;20236;-72
2021/07/04 00:03:40;;;;;;;1.52;1.42;;;21.10;99.90;;;;;;5108568;27;20220;-72
2021/07/04 00:06:07;;;;;;;1.60;1.50;;;21.10;99.90;;;;;;5101763;27;20251;-72
2021/07/04 00:08:35;;;;;;;2.55;1.33;;;21.10;99.90;;;;;;5104772;27;20239;-72
2021/07/04 00:11:06;;;;;;;1.63;1.52;;;21.10;99.90;;;;;;5106640;27;20703;-72
2021/07/04 00:13:35;;;;;;;1.52;1.42;;;21.10;99.90;;;;;;5105273;28;20888;-72
2021/07/04 00:16:04;;;;;;;1.50;1.40;;;21.10;99.90;;;;;;5110192;27;20231;-72
2021/07/04 00:18:34;;;;;;;2.15;1.85;;;21.10;99.90;;;;;;5111353;27;20848;-72
2021/07/04 00:21:03;;;;;;;1.70;1.60;;;21.10;99.90;;;;;;5111755;27;20574;-72
2021/07/04 00:23:30;;;;;;;1.45;1.35;;;21.00;99.90;;;;;;5109223;27;20223;-72
2021/07/04 00:25:57;;;;;;;1.70;1.60;;;21.10;99.90;;;;;;5109652;27;20228;-73
2021/07/04 00:28:26;;;;;;;2.88;1.42;;;21.00;99.90;;;;;;5113913;27;20217;-72
2021/07/04 00:30:55;;;;;;;1.92;1.60;;;21.00;99.90;;;;;;5111951;27;20220;-72
2021/07/04 00:33:23;;;;;;;1.58;1.30;;;21.00;99.90;;;;;;5116982;27;20632;-72
2021/07/04 00:35:50;;;;;;;1.50;1.40;;;21.00;99.90;;;;;;5113055;27;20788;-72
2021/07/04 00:38:17;;;;;;;1.58;1.48;;;21.00;99.90;;;;;;5115432;27;20221;-72
2021/07/04 00:40:45;;;;;;;1.70;1.60;;;21.00;99.90;;;;;;5111606;27;20227;-72
2021/07/04 00:43:12;;;;;;;1.50;1.40;;;20.90;99.90;;;;;;5112375;27;20216;-72
2021/07/04 00:45:39;;;;;;;1.75;1.65;;;20.90;99.90;;;;;;5112164;27;20213;-72
2021/07/04 00:48:08;;;;;;;1.52;1.42;;;20.90;99.90;;;;;;5114623;27;20589;-72
2021/07/04 00:50:36;;;;;;;2.25;1.50;;;20.90;99.90;;;;;;5093103;22;20221;-71
2021/07/04 00:53:04;;;;;;;1.70;1.60;;;20.90;99.90;;;;;;5069700;28;20598;-72
2021/07/04 00:55:31;;;;;;;1.60;1.50;;;20.80;99.90;;;;;;5064676;28;20214;-71
2021/07/04 00:57:59;;;;;;;1.80;1.70;;;20.80;99.90;;;;;;5069538;28;20225;-73
2021/07/04 01:00:29;;;;;;;1.50;1.40;;;20.80;99.90;;;;;;5047916;28;20534;-73
2021/07/04 01:02:56;;;;;;;1.92;1.70;;;20.70;99.90;;;;;;5065349;28;20616;-71
2021/07/04 01:05:27;;;;;;;1.30;1.20;;;20.70;99.90;;;;;;5043744;28;20245;-72
2021/07/04 01:07:55;;;;;;;1.58;1.48;;;20.70;99.90;;;;;;5038446;28;20223;-73
2021/07/04 01:10:24;;;;;;;1.50;1.40;;;20.70;99.90;;;;;;5037737;28;20734;-71
2021/07/04 01:12:53;;;;;;;1.58;1.48;;;20.70;99.90;;;;;;5035222;28;20231;-71
2021/07/04 01:15:21;;;;;;;1.60;1.50;;;20.80;99.90;;;;;;5027529;28;20219;-71
2021/07/04 01:17:50;;;;;;;1.70;1.60;;;20.70;99.90;;;;;;5030951;28;20229;-71
2021/07/04 01:20:20;;;;;;;1.75;1.65;;;20.70;99.90;;;;;;5034012;28;20230;-72
2021/07/04 01:23:00;;;;;;;1.50;1.40;;;20.70;99.90;;;;;;5054422;28;20711;-72
2021/07/04 01:25:29;;;;;;;1.58;1.48;;;20.70;99.90;;;;;;5051557;28;20217;-71
2021/07/04 01:27:57;;;;;;;1.80;1.52;;;20.70;99.90;;;;;;5052874;28;20239;-72
2021/07/04 01:30:24;;;;;;;1.50;1.40;;;20.70;99.90;;;;;;5042374;28;20249;-72
2021/07/04 01:32:52;;;;;;;1.50;1.40;;;20.70;99.90;;;;;;5048663;28;20229;-71
2021/07/04 01:35:19;;;;;;;1.80;1.70;;;20.70;99.90;;;;;;5046907;28;20244;-71
2021/07/04 01:37:46;;;;;;;1.50;1.40;;;20.70;99.90;;;;;;5051665;28;20288;-72
2021/07/04 01:40:15;;;;;;;1.48;1.40;;;20.70;99.90;;;;;;5037162;28;20225;-72
2021/07/04 01:42:45;;;;;;;1.50;1.40;;;20.70;99.90;;;;;;5034316;28;20237;-72
2021/07/04 01:45:15;;;;;;;1.60;1.50;;;20.70;99.90;;;;;;5053508;28;20229;-72
2021/07/04 01:47:43;;;;;;;1.60;1.50;;;20.70;99.90;;;;;;5049510;28;20233;-71
2021/07/04 01:50:16;;;;;;;1.40;1.40;;;20.70;99.90;;;;;;5049721;28;20607;-71
2021/07/04 01:52:44;;;;;;;1.77;1.67;;;20.60;99.90;;;;;;5062938;28;20210;-71
2021/07/04 01:55:13;;;;;;;1.45;1.35;;;20.60;99.90;;;;;;5053980;28;20224;-71
2021/07/04 01:57:41;;;;;;;1.77;1.67;;;20.60;99.90;;;;;;5048079;28;20747;-71
2021/07/04 02:00:13;;;;;;;1.52;1.42;;;20.60;99.90;;;;;;5049618;28;20226;-71
2021/07/04 02:02:42;;;;;;;1.25;1.25;;;20.60;99.90;;;;;;5055690;28;20210;-72
2021/07/04 02:05:10;;;;;;;1.60;1.50;;;20.50;99.90;;;;;;5052193;28;20595;-71
2021/07/04 02:07:37;;;;;;;1.20;1.20;;;20.50;99.90;;;;;;5055687;28;20718;-71
2021/07/04 02:10:06;;;;;;;2.10;1.95;;;20.50;99.90;;;;;;5052389;28;20237;-72
2021/07/04 02:12:34;;;;;;;1.80;1.70;;;20.40;99.90;;;;;;5049604;28;20661;-71
2021/07/04 02:15:09;;;;;;;1.60;1.50;;;20.40;99.90;;;;;;5058111;28;20223;-72
2021/07/04 02:17:36;;;;;;;1.63;1.52;;;20.40;99.90;;;;;;5049104;28;20230;-71
2021/07/04 02:20:21;;;;;;;1.92;1.30;;;20.40;99.90;;;;;;5050774;28;20230;-71
2021/07/04 02:22:48;;;;;;;1.70;1.60;;;20.40;99.90;;;;;;5051977;28;20732;-72
2021/07/04 02:25:15;;;;;;;1.60;1.50;;;20.40;99.90;;;;;;5049419;28;20237;-71
2021/07/04 02:27:42;;;;;;;1.58;1.48;;;20.30;99.90;;;;;;5053316;28;20229;-71
2021/07/04 02:30:12;;;;;;;1.63;1.52;;;20.30;99.90;;;;;;5047811;28;20240;-71
2021/07/04 02:32:39;;;;;;;1.45;1.40;;;20.30;99.90;;;;;;5054961;28;20222;-72
2021/07/04 02:35:07;;;;;;;1.60;1.50;;;20.30;99.90;;;;;;5048645;28;20230;-76
2021/07/04 02:37:34;;;;;;;2.30;1.63;;;20.20;99.90;;;;;;5049364;28;20218;-75
2021/07/04 02:40:01;;;;;;;1.33;1.27;;;20.10;99.90;;;;;;5052614;28;20238;-76
2021/07/04 02:42:29;;;;;;;1.80;1.50;;;20.10;99.90;;;;;;5056393;28;20228;-77
2021/07/04 02:44:58;;;;;;;1.80;1.70;;;20.00;99.90;;;;;;5066477;28;20225;-76
2021/07/04 02:47:27;;;;;;;1.67;1.58;;;20.00;99.90;;;;;;5053052;28;20497;-76
2021/07/04 02:49:54;;;;;;;1.85;1.75;;;20.00;99.90;;;;;;5061903;28;20226;-76
2021/07/04 02:52:21;;;;;;;1.70;1.60;;;19.90;99.90;;;;;;5049093;28;20639;-76
2021/07/04 02:54:48;;;;;;;1.80;1.70;;;19.90;99.90;;;;;;5048344;28;20237;-77
2021/07/04 02:57:15;;;;;;;1.80;1.70;;;19.80;99.90;;;;;;5049350;28;20215;-76
2021/07/04 02:59:42;;;;;;;2.85;1.88;;;19.70;99.90;;;;;;5049272;28;20696;-76
2021/07/04 03:02:10;;;;;;;1.40;1.40;;;19.60;99.90;;;;;;5049660;28;20722;-75
2021/07/04 03:04:38;;;;;;;1.55;1.45;;;19.60;99.90;;;;;;5053698;28;20214;-77
2021/07/04 03:07:05;;;;;;;1.45;1.35;;;19.50;99.90;;;;;;5055624;28;20736;-76
2021/07/04 03:09:32;;;;;;;1.65;1.55;;;19.50;99.90;;;;;;5052352;28;20603;-76
2021/07/04 03:11:59;;;;;;;1.40;1.30;;;19.50;99.90;;;;;;5053717;28;20712;-75
2021/07/04 03:14:26;;;;;;;1.50;1.50;;;19.40;99.90;;;;;;5052038;28;20230;-75
2021/07/04 03:16:53;;;;;;;1.75;1.65;;;19.40;99.90;;;;;;5056631;28;20775;-76
2021/07/04 03:19:21;;;;;;;1.60;1.50;;;19.40;99.90;;;;;;5056872;28;20735;-75
2021/07/04 03:21:49;;;;;;;1.27;1.27;;;19.40;99.90;;;;;;5051404;28;20233;-76
2021/07/04 03:24:16;;;;;;;1.70;1.60;;;19.30;99.90;;;;;;5050895;28;20334;-75
2021/07/04 03:26:43;;;;;;;1.67;1.58;;;19.30;99.90;;;;;;5047856;28;20223;-75
2021/07/04 03:29:10;;;;;;;1.98;1.83;;;19.20;99.90;;;;;;5053706;28;20218;-76
2021/07/04 03:31:37;;;;;;;1.60;1.50;;;19.20;99.90;;;;;;5054647;28;20225;-76
2021/07/04 03:34:04;;;;;;;1.80;1.70;;;19.20;99.90;;;;;;5060750;28;20206;-78
2021/07/04 03:36:32;;;;;;;1.80;1.70;;;19.20;99.90;;;;;;5051043;28;20711;-76
2021/07/04 03:39:00;;;;;;;1.90;1.80;;;19.20;99.90;;;;;;5046586;28;20569;-76
2021/07/04 03:41:27;;;;;;;1.70;1.60;;;19.20;99.90;;;;;;5051612;28;20310;-77
2021/07/04 03:43:54;;;;;;;1.98;1.88;;;19.20;99.90;;;;;;5053356;28;20230;-76
2021/07/04 03:46:22;;;;;;;1.73;1.63;;;19.30;99.90;;;;;;5049885;28;20222;-76
2021/07/04 03:48:49;;;;;;;1.88;1.77;;;19.30;99.90;;;;;;5049573;28;20309;-75
2021/07/04 03:51:16;;;;;;;1.30;1.30;;;19.30;99.90;;;;;;5046414;28;20685;-77
2021/07/04 03:53:43;;;;;;;1.60;1.50;;;19.30;99.90;;;;;;5048860;28;20235;-77
2021/07/04 03:56:11;;;;;;;1.60;1.50;;;19.40;99.90;;;;;;5050263;28;20221;-76
2021/07/04 03:58:39;;;;;;;1.80;1.70;;;19.40;99.90;;;;;;5050654;28;20221;-76
2021/07/04 04:01:09;;;;;;;1.83;1.73;;;19.40;99.90;;;;;;5042202;28;20236;-76
2021/07/04 04:03:36;;;;;;;1.60;1.50;;;19.40;99.90;;;;;;5050529;28;20218;-75
2021/07/04 04:06:03;;;;;;;1.60;1.50;;;19.40;99.90;;;;;;5054757;28;20222;-77
2021/07/04 04:08:30;;;;;;;1.38;1.38;;;19.40;99.90;;;;;;5047831;28;20576;-76
2021/07/04 04:10:57;;;;;;;1.63;1.52;;;19.50;99.90;;;;;;5053117;28;20237;-78
2021/07/04 04:13:26;;;;;;;1.55;1.45;;;19.50;99.90;;;;;;5053631;28;20439;-75
2021/07/04 04:15:53;;;;;;;1.75;1.65;;;19.60;99.90;;;;;;5049177;28;20214;-75
2021/07/04 04:18:20;;;;;;;1.67;1.58;;;19.60;99.90;;;;;;5043981;28;20226;-77
2021/07/04 04:20:47;;;;;;;1.73;1.63;;;19.70;99.90;;;;;;5045085;28;20227;-76
2021/07/04 04:23:14;;;;;;;1.60;1.50;;;19.80;99.90;;;;;;5045043;28;20226;-75
2021/07/04 04:25:41;;;;;;;1.45;1.35;;;19.90;99.90;;;;;;5061440;28;20215;-75
2021/07/04 04:28:09;;;;;;;2.95;1.50;;;19.90;99.90;;;;;;5029685;28;20227;-76
2021/07/04 04:30:37;;;;;;;1.92;1.73;;;20.00;99.90;;;;;;5025139;28;20227;-75
2021/07/04 04:33:05;;;;;;;1.70;1.60;;;20.10;99.90;;;;;;5031767;28;20586;-76
2021/07/04 04:35:32;;;;;;;2.00;1.80;;;20.20;99.90;;;;;;5049511;28;20774;-76
2021/07/04 04:37:59;;;;;;;1.58;1.48;;;20.30;99.90;;;;;;5030567;28;20219;-75
2021/07/04 04:40:26;;;;;;;1.80;1.70;;;20.40;99.90;;;;;;5032021;28;20234;-76
2021/07/04 04:42:54;;;;;;;1.92;1.80;;;20.50;99.90;;;;;;5041482;28;20230;-75
2021/07/04 04:45:21;;;;;;;2.20;2.00;;;20.50;99.90;;;;;;5035065;28;20697;-76
2021/07/04 04:47:50;;;;;;;2.05;1.95;;;20.60;99.90;;;;;;5033959;28;20223;-75
2021/07/04 04:50:17;;;;;;;2.10;1.90;;;20.60;99.90;;;;;;5039939;28;20876;-76
2021/07/04 04:52:44;;;;;;;2.38;1.70;;;20.70;99.90;;;;;;5019677;28;20228;-76
2021/07/04 04:55:12;;;;;;;2.97;1.88;;;20.80;99.90;;;;;;5029447;28;20230;-76
2021/07/04 04:57:40;;;;;;;2.10;2.00;;;21.00;99.90;;;;;;5043165;28;20262;-76
2021/07/04 05:00:10;;;;;;;1.90;1.80;;;21.20;99.90;;;;;;5043795;28;20241;-76
2021/07/04 05:02:37;;;;;;;1.80;1.70;;;21.30;99.90;;;;;;5044560;28;20215;-77
2021/07/04 05:05:06;;;;;;;1.70;1.60;;;21.30;99.90;;;;;;5043978;28;20322;-76
2021/07/04 05:07:34;;;;;;;2.30;2.13;;;21.30;99.90;;;;;;5054819;28;20226;-76
2021/07/04 05:10:01;;;;;;;2.25;2.00;;;21.40;99.90;;;;;;5050406;28;20229;-75
2021/07/04 05:12:28;;;;;;;2.30;2.20;;;21.30;99.90;;;;;;5045371;28;20255;-76
2021/07/04 05:14:55;;;;;;;2.30;2.20;;;21.10;99.90;;;;;;5043880;28;20225;-76
2021/07/04 05:17:22;;;;;;;2.08;1.98;;;20.90;99.90;;;;;;5057409;28;20219;-76
2021/07/04 05:19:49;;;;;;;2.05;1.90;;;20.80;99.90;;;;;;5044210;28;20227;-77
2021/07/04 05:22:19;;;;;;;2.20;2.10;;;20.60;99.90;;;;;;5041200;28;20230;-76
2021/07/04 05:24:46;;;;;;;2.42;2.00;;;20.60;99.90;;;;;;5052310;28;20229;-76
2021/07/04 05:27:13;;;;;;;1.92;1.83;;;20.70;99.90;;;;;;5038157;28;20707;-75
2021/07/04 05:29:40;;;;;;;2.22;2.10;;;20.70;99.90;;;;;;5046398;28;20712;-75
2021/07/04 05:32:08;;;;;;;2.17;2.08;;;20.60;99.90;;;;;;5049275;28;20214;-77
2021/07/04 05:34:35;;;;;;;2.13;1.98;;;20.60;99.90;;;;;;5045930;28;20222;-75
2021/07/04 05:37:02;;;;;;;1.90;1.80;;;20.50;99.90;;;;;;5039773;28;20222;-76
2021/07/04 05:39:31;;;;;;;1.83;1.73;;;20.50;99.90;;;;;;5034846;28;20237;-75
2021/07/04 05:41:58;;;;;;;2.25;2.05;;;20.50;99.90;;;;;;5043658;28;20227;-76
2021/07/04 05:44:25;;;;;;;2.20;2.03;;;20.50;99.90;;;;;;5045556;28;20693;-76
2021/07/04 05:46:52;;;;;;;2.17;1.95;;;20.50;99.90;;;;;;5045421;28;20219;-76
2021/07/04 05:49:19;;;;;;;2.05;1.95;;;20.60;99.90;;;;;;5048025;28;20638;-75
2021/07/04 05:51:46;;;;;;;2.67;2.47;;;20.70;99.90;;;;;;5047731;28;20242;-75
2021/07/04 05:54:14;;;;;;;3.08;2.88;;;20.80;99.90;;;;;;5051913;28;20222;-76
2021/07/04 05:56:42;;;;;;;2.45;2.28;;;21.00;99.90;;;;;;5044679;28;20229;-77
2021/07/04 05:59:09;;;;;;;2.60;2.40;;;21.20;99.90;;;;;;5045403;28;20236;-76
2021/07/04 06:01:37;;;;;;;2.45;2.25;;;21.40;99.90;;;;;;5043640;28;20602;-76
2021/07/04 06:04:06;;;;;;;2.70;2.50;;;21.50;99.90;;;;;;5047282;28;20225;-75
2021/07/04 06:06:33;;;;;;;2.22;2.13;;;21.70;99.90;;;;;;5050531;28;20222;-77
2021/07/04 06:09:00;;;;;;;2.33;2.22;;;21.80;99.90;;;;;;5067306;28;20234;-76
2021/07/04 06:11:28;;;;;;;2.72;2.53;;;21.90;99.90;;;;;;5056922;28;20581;-75
2021/07/04 06:13:56;;;;;;;3.08;2.28;;;21.90;99.90;;;;;;5047527;28;20218;-76
2021/07/04 06:16:24;;;;;;;2.45;2.25;;;22.00;99.90;;;;;;5050643;28;20264;-75
2021/07/04 06:18:51;;;;;;;2.28;2.03;;;22.10;99.90;;;;;;5053706;28;20225;-76
2021/07/04 06:21:18;;;;;;;2.13;2.03;;;22.20;99.90;;;;;;5053226;28;20233;-77
2021/07/04 06:23:46;;;;;;;3.22;2.50;;;22.30;99.90;;;;;;5057395;28;20222;-76
2021/07/04 06:26:13;;;;;;;2.70;2.50;;;22.40;99.90;;;;;;5054822;28;22001;-77
2021/07/04 06:28:40;;;;;;;2.60;2.40;;;22.50;99.90;;;;;;5051260;28;20216;-76
2021/07/04 06:31:08;;;;;;;2.53;2.33;;;22.60;99.90;;;;;;5058985;28;20217;-75
2021/07/04 06:33:35;;;;;;;2.55;2.35;;;22.60;99.90;;;;;;5049069;28;20222;-78
2021/07/04 06:36:02;;;;;;;2.60;2.50;;;22.70;99.90;;;;;;5049039;28;20622;-75
2021/07/04 06:38:30;;;;;;;2.95;2.75;;;22.70;99.90;;;;;;5057875;28;20234;-77
2021/07/04 06:40:57;;;;;;;2.50;2.30;;;22.70;99.90;;;;;;5058527;28;20259;-75
2021/07/04 06:43:24;;;;;;;3.03;2.30;;;22.70;99.90;;;;;;5052875;28;20596;-75
2021/07/04 06:45:52;;;;;;;3.45;2.58;;;22.90;99.90;;;;;;5048457;28;20720;-75
2021/07/04 06:48:21;;;;;;;2.75;2.55;;;23.10;99.90;;;;;;5045553;28;20258;-76
2021/07/04 06:50:48;;;;;;;2.67;2.47;;;23.20;99.90;;;;;;5071601;22;20789;-74
2021/07/04 06:53:15;;;;;;;3.30;2.90;;;23.20;99.90;;;;;;5058292;28;20234;-75
2021/07/04 06:55:42;;;;;;;3.85;2.38;;;23.20;99.90;;;;;;5070572;28;20229;-73
2021/07/04 06:58:09;;;;;;;3.00;2.60;;;23.30;99.90;;;;;;5062139;28;20218;-73
2021/07/04 07:00:36;;;;;;;2.85;2.60;;;23.20;99.90;;;;;;5064662;28;20265;-74
2021/07/04 07:03:04;;;;;;;2.90;2.70;;;23.30;99.90;;;;;;5055664;28;20229;-74
2021/07/04 07:05:33;;;;;;;3.80;2.50;;;23.40;99.90;;;;;;5053712;28;20225;-74
2021/07/04 07:08:00;;;;;;;3.03;2.60;;;23.50;99.90;;;;;;5053894;28;20249;-74
2021/07/04 07:10:27;;;;;;;2.60;2.40;;;23.50;99.90;;;;;;5056939;28;20234;-73
2021/07/04 07:12:54;;;;;;;2.60;2.40;;;23.60;99.90;;;;;;5055140;28;20218;-73
2021/07/04 07:15:22;;;;;;;2.95;2.70;;;23.70;99.90;;;;;;5055887;28;20615;-74
2021/07/04 07:17:49;;;;;;;2.50;2.30;;;23.70;99.90;;;;;;5058277;28;20744;-74
2021/07/04 07:20:17;;;;;;;2.40;2.30;;;23.80;99.90;;;;;;5054487;28;20243;-74
2021/07/04 07:22:45;;;;;;;2.55;2.35;;;23.90;99.90;;;;;;5069218;28;20283;-75
2021/07/04 07:25:13;;;;;;;2.83;2.63;;;23.90;99.90;;;;;;5065293;28;20732;-74
2021/07/04 07:27:41;;;;;;;2.55;2.35;;;24.00;99.90;;;;;;5053915;28;20307;-74
2021/07/04 07:30:10;;;;;;;2.90;2.58;;;24.10;99.90;;;;;;5059143;28;20241;-74
2021/07/04 07:32:37;;;;;;;2.67;2.47;;;24.20;99.90;;;;;;5056873;28;20233;-73
2021/07/04 07:35:05;;;;;;;2.58;2.35;;;24.10;99.90;;;;;;5060057;28;20716;-74
2021/07/04 07:37:32;;;;;;;2.65;2.45;;;24.10;99.90;;;;;;5039871;28;20223;-73
2021/07/04 07:40:01;;;;;;;2.50;2.30;;;24.30;99.90;;;;;;5049785;28;20238;-73
2021/07/04 07:42:28;;;;;;;2.42;2.30;;;24.40;99.90;;;;;;5055624;28;20230;-74
2021/07/04 07:44:55;;;;;;;2.70;2.50;;;24.40;99.90;;;;;;5060386;28;20276;-74
2021/07/04 07:47:22;;;;;;;2.45;2.25;;;24.40;99.90;;;;;;5063242;28;20211;-74
2021/07/04 07:49:49;;;;;;;3.22;2.47;;;24.40;99.90;;;;;;5052699;28;20230;-75
2021/07/04 07:52:16;;;;;;;2.47;2.30;;;24.50;99.90;;;;;;5064969;28;20226;-75
2021/07/04 07:54:44;;;;;;;2.25;2.15;;;24.60;99.90;;;;;;5055687;28;20737;-75
2021/07/04 07:57:12;;;;;;;2.47;2.28;;;24.80;99.90;;;;;;5060639;28;20364;-74
2021/07/04 07:59:39;;;;;;;2.45;2.28;;;24.90;99.90;;;;;;5051490;28;20646;-75
2021/07/04 08:02:06;;;;;;;3.08;2.35;;;25.00;99.90;;;;;;5055973;28;20222;-75
2021/07/04 08:04:33;;;;;;;3.00;2.50;;;25.30;99.90;;;;;;5062351;28;20771;-75
2021/07/04 08:07:01;;;;;;;2.78;2.60;;;25.40;99.90;;;;;;5063366;28;20226;-75
2021/07/04 08:09:28;;;;;;;2.63;2.42;;;25.40;99.90;;;;;;5072322;28;20337;-76
2021/07/04 08:11:55;;;;;;;2.33;2.13;;;25.30;99.90;;;;;;5055945;28;20223;-75
2021/07/04 08:14:23;;;;;;;2.50;2.30;;;25.30;99.90;;;;;;5064472;28;20236;-75
2021/07/04 08:16:51;;;;;;;2.22;2.13;;;25.40;99.90;;;;;;5061757;28;20223;-76
2021/07/04 08:19:18;;;;;;;2.72;2.53;;;25.50;99.90;;;;;;5073000;28;20228;-75
2021/07/04 08:21:45;;;;;;;3.15;2.40;;;25.50;99.90;;;;;;5071164;28;20234;-76
2021/07/04 08:24:12;;;;;;;2.63;2.33;;;25.50;99.90;;;;;;5061083;28;20615;-74
2021/07/04 08:26:39;;;;;;;2.45;2.28;;;25.70;99.90;;;;;;5051773;28;20225;-75
2021/07/04 08:29:06;;;;;;;2.13;1.92;;;25.80;99.90;;;;;;5059684;28;20219;-75
2021/07/04 08:31:35;;;;;;;2.30;2.20;;;25.90;99.90;;;;;;5062992;28;20222;-75
2021/07/04 08:34:02;;;;;;;3.15;2.47;;;26.00;99.90;;;;;;5056313;28;20222;-72
2021/07/04 08:36:31;;;;;;;2.22;2.10;;;26.10;99.90;;;;;;5055687;28;20237;-75
2021/07/04 08:38:59;;;;;;;2.30;2.10;;;26.00;99.90;;;;;;5049373;28;20223;-75
2021/07/04 08:41:26;;;;;;;2.17;2.08;;;26.00;99.90;;;;;;5054074;28;20237;-72
2021/07/04 08:43:54;;;;;;;2.28;2.08;;;25.80;99.90;;;;;;5049848;28;20242;-72
2021/07/04 08:46:21;;;;;;;2.05;1.95;;;25.80;99.90;;;;;;5052879;28;20298;-72
2021/07/04 08:48:50;;;;;;;2.50;2.30;;;26.00;99.90;;;;;;5053549;28;20225;-73
2021/07/04 08:51:17;;;;;;;1.83;1.73;;;25.90;99.90;;;;;;5056647;28;20240;-72
2021/07/04 08:53:44;;;;;;;2.70;2.00;;;25.80;99.90;;;;;;5057653;28;20921;-73
2021/07/04 08:56:11;;;;;;;2.00;1.90;;;25.70;99.90;;;;;;5059393;28;20222;-72
2021/07/04 08:58:38;;;;;;;2.30;2.10;;;25.60;99.90;;;;;;5054443;28;20233;-72
2021/07/04 09:01:14;;;;;;;2.25;2.05;;;25.60;99.90;;;;;;5058679;28;20229;-72
2021/07/04 09:03:43;;;;;;;3.03;2.05;;;25.40;99.90;;;;;;5047959;28;20217;-72
2021/07/04 09:06:13;;;;;;;2.33;2.00;;;25.60;99.90;;;;;;5051897;28;20241;-75
2021/07/04 09:08:41;;;;;;;1.77;1.67;;;25.90;99.90;;;;;;5048881;28;20272;-74
2021/07/04 09:11:13;;;;;;;1.73;1.63;;;26.10;99.90;;;;;;5054564;28;20301;-74
2021/07/04 09:13:42;;;;;;;2.22;1.90;;;26.40;99.90;;;;;;5052327;28;20485;-75
2021/07/04 09:16:10;;;;;;;2.00;1.90;;;26.50;99.90;;;;;;5052467;28;20219;-74
2021/07/04 09:18:38;;;;;;;1.70;1.60;;;26.90;99.90;;;;;;5060518;28;20222;-72
2021/07/04 09:21:19;;;;;;;2.05;1.92;;;27.10;99.90;;;;;;5054378;28;20218;-72
2021/07/04 09:23:46;;;;;;;1.90;1.80;;;27.10;99.90;;;;;;5058917;28;20220;-74
2021/07/04 09:26:40;;;;;;;1.55;1.45;;;27.30;99.90;;;;;;5051972;28;20218;-73
2021/07/04 09:29:09;;;;;;;2.00;1.90;;;27.40;99.90;;;;;;5057249;28;20230;-72
2021/07/04 09:31:36;;;;;;;1.98;1.70;;;27.50;99.90;;;;;;5055870;28;20222;-74
2021/07/04 09:34:06;;;;;;;2.00;1.80;;;27.40;99.90;;;;;;5053770;28;20237;-73
2021/07/04 09:36:36;;;;;;;1.90;1.80;;;27.10;99.90;;;;;;5054502;28;20226;-73
2021/07/04 09:39:16;;;;;;;2.72;2.22;;;27.20;99.90;;;;;;5056938;28;20215;-74
2021/07/04 09:42:08;;;;;;;2.58;2.38;;;27.00;99.90;;;;;;5055322;28;20225;-74
2021/07/04 09:44:36;;;;;;;2.58;2.20;;;26.60;99.90;;;;;;5056753;28;20283;-73
2021/07/04 09:47:14;;;;;;;2.20;2.00;;;26.40;99.90;;;;;;5053417;28;20238;-73
2021/07/04 09:49:42;;;;;;;2.42;2.25;;;26.40;99.90;;;;;;5051318;28;20222;-73
2021/07/04 09:52:19;;;;;;;2.80;2.05;;;26.40;99.90;;;;;;5056404;28;20249;-73
2021/07/04 09:55:00;;;;;;;2.00;1.90;;;26.50;99.90;;;;;;5051638;28;20221;-73
2021/07/04 09:57:28;;;;;;;2.75;2.20;;;26.80;99.90;;;;;;5047957;28;20226;-74
2021/07/04 10:00:16;;;;;;;2.42;2.22;;;26.80;99.90;;;;;;5037961;28;20223;-73
2021/07/04 10:02:44;;;;;;;2.22;2.13;;;26.80;99.90;;;;;;5034704;28;20214;-73
2021/07/04 10:05:16;;;;;;;2.30;2.20;;;26.80;99.90;;;;;;5041365;28;20224;-73
2021/07/04 10:07:45;;;;;;;2.10;2.00;;;26.80;99.90;;;;;;5033844;28;20219;-73
2021/07/04 10:10:12;;;;;;;2.53;2.03;;;26.90;99.90;;;;;;5054483;28;20708;-73
2021/07/04 10:12:41;;;;;;;2.70;2.50;;;27.20;99.90;;;;;;5036447;28;20219;-74
2021/07/04 10:15:09;;;;;;;2.53;2.10;;;27.30;99.90;;;;;;5049139;28;20218;-74
2021/07/04 10:17:37;;;;;;;2.30;2.17;;;27.30;99.90;;;;;;5038446;28;20219;-73
2021/07/04 10:20:06;;;;;;;3.08;2.40;;;27.30;99.90;;;;;;5051225;28;20291;-76
2021/07/04 10:22:37;;;;;;;2.50;2.22;;;27.10;99.90;;;;;;5055668;28;21696;-74
2021/07/04 10:25:08;;;;;;;2.50;2.30;;;26.90;99.90;;;;;;5054909;28;20238;-73
2021/07/04 10:27:39;;;;;;;4.88;2.28;;;26.70;99.90;;;;;;5052338;28;20217;-74
2021/07/04 10:30:08;;;;;;;2.67;2.47;;;26.40;99.90;;;;;;5041035;28;20233;-74
2021/07/04 10:32:35;;;;;;;2.47;2.28;;;26.20;99.90;;;;;;5039106;28;20513;-74
2021/07/04 10:35:10;;;;;;;2.60;2.40;;;26.10;99.90;;;;;;5051708;28;20243;-76
2021/07/04 10:37:39;;;;;;;2.38;2.17;;;25.90;99.90;;;;;;5056850;28;20236;-76
2021/07/04 10:40:17;;;;;;;2.33;2.22;;;25.90;99.90;;;;;;5063682;28;20231;-78
2021/07/04 10:42:44;;;;;;;3.33;2.40;;;26.00;99.90;;;;;;5063182;28;20222;-78
2021/07/04 10:45:32;;;;;;;2.40;2.20;;;26.10;99.90;;;;;;5055904;28;20234;-77
2021/07/04 10:48:17;;;;;;;2.38;2.25;;;26.40;99.90;;;;;;5053538;28;20605;-78
2021/07/04 10:51:06;;;;;;;3.97;2.35;;;26.70;99.90;;;;;;5051384;28;20245;-77
2021/07/04 10:53:43;;;;;;;2.60;2.08;;;26.90;99.90;;;;;;5038217;28;20221;-74
2021/07/04 10:56:43;;;;;;;2.20;2.00;;;26.90;99.90;;;;;;5044775;28;20804;-75
2021/07/04 10:59:12;;;;;;;2.55;2.30;;;26.90;99.90;;;;;;5041671;28;20218;-74
2021/07/04 11:01:54;;;;;;;2.70;2.30;;;27.00;99.90;;;;;;5042491;28;20227;-75
2021/07/04 11:04:55;;;;;;;2.22;2.03;;;26.90;99.90;;;;;;5047859;28;20248;-74
2021/07/04 11:07:23;;;;;;;2.28;2.17;;;26.90;99.90;;;;;;5045968;28;20217;-74
2021/07/04 11:10:18;;;;;;;2.00;1.90;;;26.90;99.90;;;;;;5042582;28;20254;-76
2021/07/04 11:12:47;;;;;;;2.72;2.47;;;26.90;99.90;;;;;;5042418;28;20264;-76
2021/07/04 11:15:31;;;;;;;2.17;2.08;;;27.00;99.90;;;;;;5039125;28;20647;-75
2021/07/04 11:18:09;;;;;;;2.53;2.30;;;27.00;99.90;;;;;;5045797;28;20237;-74
2021/07/04 11:20:58;;;;;;;2.78;2.17;;;27.10;99.90;;;;;;5041716;28;20325;-74
2021/07/04 11:23:26;;;;;;;3.42;2.08;;;26.90;99.90;;;;;;5040160;28;20886;-75
2021/07/04 11:25:56;;;;;;;2.28;2.17;;;26.80;99.90;;;;;;5032217;28;20223;-74
2021/07/04 11:28:28;;;;;;;2.35;2.20;;;26.80;99.90;;;;;;5043024;28;20226;-74
2021/07/04 11:31:25;;;;;;;3.25;2.70;;;26.70;99.90;;;;;;5037731;28;20296;-74
2021/07/04 11:33:54;;;;;;;3.15;2.70;;;26.40;99.90;;;;;;5036263;28;20597;-74
2021/07/04 11:36:25;;;;;;;3.38;2.65;;;26.30;99.90;;;;;;5035579;28;20261;-73
2021/07/04 11:38:54;;;;;;;2.88;2.67;;;26.10;99.90;;;;;;5038187;28;20648;-73
2021/07/04 11:41:24;;;;;;;3.50;2.53;;;25.90;99.90;;;;;;5035274;28;20261;-73
2021/07/04 11:43:56;;;;;;;2.42;2.22;;;25.80;99.90;;;;;;5042319;28;20215;-74
2021/07/04 11:46:25;;;;;;;2.40;2.20;;;25.50;99.90;;;;;;5037392;28;20708;-74
2021/07/04 11:49:03;;;;;;;3.20;2.42;;;25.40;99.90;;;;;;5042382;28;20222;-73
2021/07/04 11:51:44;;;;;;;2.53;2.28;;;25.30;99.90;;;;;;5036866;28;20616;-73
2021/07/04 11:54:14;;;;;;;2.70;2.47;;;25.20;99.90;;;;;;5037741;28;20225;-73
2021/07/04 11:56:45;;;;;;;3.58;2.50;;;25.20;99.90;;;;;;5035221;28;20645;-74
2021/07/04 11:59:16;;;;;;;3.35;2.92;;;25.20;99.90;;;;;;5040629;28;20580;-74
2021/07/04 12:01:50;;;;;;;2.97;2.78;;;25.20;99.90;;;;;;5052430;28;20214;-74
2021/07/04 12:04:19;;;;;;;3.05;2.58;;;25.20;99.90;;;;;;5040128;28;20511;-73
2021/07/04 12:06:51;;;;;;;4.78;2.45;;;25.20;99.90;;;;;;5028663;28;21219;-73
2021/07/04 12:09:18;;;;;;;3.00;2.72;;;25.20;99.90;;;;;;5028305;28;20227;-75
2021/07/04 12:11:52;;;;;;;3.22;2.92;;;25.10;99.90;;;;;;5038854;28;20968;-74
2021/07/04 12:14:33;;;;;;;3.10;2.90;;;25.10;99.90;;;;;;5034383;28;20226;-73
2021/07/04 12:17:19;;;;;;;3.47;3.17;;;25.20;99.90;;;;;;5039508;28;20230;-73
2021/07/04 12:19:50;;;;;;;2.95;2.65;;;25.20;99.90;;;;;;5039264;28;20226;-73
2021/07/04 12:22:22;;;;;;;2.97;2.67;;;25.10;99.90;;;;;;5026542;28;20634;-73
2021/07/04 12:24:50;;;;;;;3.33;2.88;;;25.10;99.90;;;;;;5027202;28;20900;-73
2021/07/04 12:27:22;;;;;;;3.10;2.80;;;25.00;99.90;;;;;;5038090;28;20293;-75
2021/07/04 12:30:11;;;;;;;3.03;2.83;;;25.00;99.90;;;;;;5030181;28;20238;-73
2021/07/04 12:32:40;;;;;;;3.17;2.83;;;24.90;99.90;;;;;;5030301;28;20219;-74
2021/07/04 12:35:09;;;;;;;5.80;2.90;;;24.80;99.90;;;;;;5043719;28;20229;-74
2021/07/04 12:37:36;;;;;;;2.75;2.45;;;24.70;99.90;;;;;;5043363;28;20233;-74
2021/07/04 12:40:09;;;;;;;2.50;2.30;;;24.60;99.90;;;;;;5037688;28;20229;-74
2021/07/04 12:42:37;;;;;;;3.92;2.90;;;24.50;99.90;;;;;;5042187;28;20235;-74
2021/07/04 12:45:09;;;;;;;3.10;2.63;;;24.50;99.90;;;;;;5046024;28;21543;-74
2021/07/04 12:47:36;;;;;;;3.00;2.80;;;24.40;99.90;;;;;;5043808;28;20632;-74
2021/07/04 12:52:35;;;;;;;2.75;2.55;;;24.40;99.90;;;;;;5024986;28;20210;-77
2021/07/04 12:55:03;;;;;;;2.72;2.55;;;24.30;99.90;;;;;;5028891;28;21510;-76
2021/07/04 12:57:33;;;;;;;3.30;3.00;;;24.30;99.90;;;;;;5031508;28;20222;-75
2021/07/04 13:00:17;;;;;;;3.13;2.83;;;24.30;99.90;;;;;;5027228;28;20713;-76
2021/07/04 13:02:46;;;;;;;3.30;2.97;;;24.20;99.90;;;;;;5010239;28;20223;-75